sensor_id;sensor_type;location;lat;lon;timestamp;pressure;altitude;pressure_sealevel;temperature;humidity
9110;BME280;4590;51.462;6.692;2023-09-07T00:00:17;101735.78;;;23.16;58.25
9110;BME280;4590;51.462;6.692;2023-09-07T00:02:42;101732.97;;;23.16;57.20
9110;BME280;4590;51.462;6.692;2023-09-07T00:05:08;101724.13;;;23.14;57.08
9110;BME280;4590;51.462;6.692;2023-09-07T00:07:33;101722.84;;;23.11;57.12
9110;BME280;4590;51.462;6.692;2023-09-07T00:09:59;101721.22;;;23.10;57.75
9110;BME280;4590;51.462;6.692;2023-09-07T00:12:24;101729.66;;;23.10;58.15
9110;BME280;4590;51.462;6.692;2023-09-07T00:14:50;101728.84;;;23.09;56.68
9110;BME280;4590;51.462;6.692;2023-09-07T00:17:15;101715.97;;;23.08;57.14
9110;BME280;4590;51.462;6.692;2023-09-07T00:19:40;101724.41;;;23.08;57.54
9110;BME280;4590;51.462;6.692;2023-09-07T00:22:05;101722.31;;;23.05;57.95
9110;BME280;4590;51.462;6.692;2023-09-07T00:24:30;101721.44;;;23.01;59.36
9110;BME280;4590;51.462;6.692;2023-09-07T00:26:58;101722.16;;;22.98;58.79
9110;BME280;4590;51.462;6.692;2023-09-07T00:29:24;101722.97;;;22.99;57.12
9110;BME280;4590;51.462;6.692;2023-09-07T00:31:49;101734.59;;;22.97;57.20
9110;BME280;4590;51.462;6.692;2023-09-07T00:34:14;101730.97;;;22.97;55.56
9110;BME280;4590;51.462;6.692;2023-09-07T00:36:39;101727.72;;;22.95;56.85
9110;BME280;4590;51.462;6.692;2023-09-07T00:39:04;101732.06;;;22.92;57.31
9110;BME280;4590;51.462;6.692;2023-09-07T00:41:30;101726.81;;;22.91;57.43
9110;BME280;4590;51.462;6.692;2023-09-07T00:43:55;101728.00;;;22.90;56.54
9110;BME280;4590;51.462;6.692;2023-09-07T00:46:20;101738.41;;;22.89;56.77
9110;BME280;4590;51.462;6.692;2023-09-07T00:48:46;101723.91;;;22.87;57.91
9110;BME280;4590;51.462;6.692;2023-09-07T00:51:12;101730.25;;;22.84;57.49
9110;BME280;4590;51.462;6.692;2023-09-07T00:53:37;101728.25;;;22.85;56.66
9110;BME280;4590;51.462;6.692;2023-09-07T00:56:02;101728.63;;;22.83;57.18
9110;BME280;4590;51.462;6.692;2023-09-07T00:58:28;101717.41;;;22.83;57.10
9110;BME280;4590;51.462;6.692;2023-09-07T01:00:54;101718.59;;;22.82;57.64
9110;BME280;4590;51.462;6.692;2023-09-07T01:03:20;101723.78;;;22.80;57.22
9110;BME280;4590;51.462;6.692;2023-09-07T01:05:52;101720.16;;;22.80;56.18
9110;BME280;4590;51.462;6.692;2023-09-07T01:08:24;101719.22;;;22.75;56.96
9110;BME280;4590;51.462;6.692;2023-09-07T01:10:51;101712.69;;;22.71;57.34
9110;BME280;4590;51.462;6.692;2023-09-07T01:13:17;101711.78;;;22.67;57.58
9110;BME280;4590;51.462;6.692;2023-09-07T01:15:43;101721.78;;;22.65;57.59
9110;BME280;4590;51.462;6.692;2023-09-07T01:18:08;101716.53;;;22.63;58.04
9110;BME280;4590;51.462;6.692;2023-09-07T01:20:34;101714.91;;;22.62;57.87
9110;BME280;4590;51.462;6.692;2023-09-07T01:23:01;101712.81;;;22.59;57.83
9110;BME280;4590;51.462;6.692;2023-09-07T01:25:26;101707.56;;;22.58;57.72
9110;BME280;4590;51.462;6.692;2023-09-07T01:27:53;101709.13;;;22.55;57.99
9110;BME280;4590;51.462;6.692;2023-09-07T01:30:18;101705.41;;;22.51;57.82
9110;BME280;4590;51.462;6.692;2023-09-07T01:32:43;101708.16;;;22.48;58.02
9110;BME280;4590;51.462;6.692;2023-09-07T01:35:08;101700.81;;;22.43;59.28
9110;BME280;4590;51.462;6.692;2023-09-07T01:37:35;101702.72;;;22.39;58.24
9110;BME280;4590;51.462;6.692;2023-09-07T01:40:00;101697.81;;;22.36;58.24
9110;BME280;4590;51.462;6.692;2023-09-07T01:42:25;101697.41;;;22.34;58.48
9110;BME280;4590;51.462;6.692;2023-09-07T01:44:51;101701.28;;;22.29;58.45
9110;BME280;4590;51.462;6.692;2023-09-07T01:47:16;101696.75;;;22.25;58.42
9110;BME280;4590;51.462;6.692;2023-09-07T01:49:41;101705.88;;;22.22;58.42
9110;BME280;4590;51.462;6.692;2023-09-07T01:52:06;101699.41;;;22.18;58.48
9110;BME280;4590;51.462;6.692;2023-09-07T01:54:31;101705.25;;;22.13;58.97
9110;BME280;4590;51.462;6.692;2023-09-07T01:56:57;101702.00;;;22.11;58.83
9110;BME280;4590;51.462;6.692;2023-09-07T01:59:22;101697.47;;;22.06;58.90
9110;BME280;4590;51.462;6.692;2023-09-07T02:01:48;101694.97;;;22.01;58.60
9110;BME280;4590;51.462;6.692;2023-09-07T02:04:13;101694.03;;;21.97;58.64
9110;BME280;4590;51.462;6.692;2023-09-07T02:06:38;101693.09;;;21.93;59.14
9110;BME280;4590;51.462;6.692;2023-09-07T02:09:04;101687.78;;;21.88;59.52
9110;BME280;4590;51.462;6.692;2023-09-07T02:11:29;101692.13;;;21.85;59.31
9110;BME280;4590;51.462;6.692;2023-09-07T02:13:54;101690.38;;;21.81;59.46
9110;BME280;4590;51.462;6.692;2023-09-07T02:16:19;101685.50;;;21.78;59.59
9110;BME280;4590;51.462;6.692;2023-09-07T02:18:45;101680.63;;;21.75;59.25
9110;BME280;4590;51.462;6.692;2023-09-07T02:21:11;101677.75;;;21.71;59.75
9110;BME280;4590;51.462;6.692;2023-09-07T02:23:37;101685.69;;;21.69;59.34
9110;BME280;4590;51.462;6.692;2023-09-07T02:26:02;101689.91;;;21.63;59.96
9110;BME280;4590;51.462;6.692;2023-09-07T02:28:28;101689.34;;;21.57;59.82
9110;BME280;4590;51.462;6.692;2023-09-07T02:30:53;101691.59;;;21.52;59.97
9110;BME280;4590;51.462;6.692;2023-09-07T02:33:18;101693.94;;;21.50;60.04
9110;BME280;4590;51.462;6.692;2023-09-07T02:35:43;101694.19;;;21.45;60.38
9110;BME280;4590;51.462;6.692;2023-09-07T02:38:09;101692.09;;;21.42;60.07
9110;BME280;4590;51.462;6.692;2023-09-07T02:40:40;101695.66;;;21.39;60.25
9110;BME280;4590;51.462;6.692;2023-09-07T02:43:07;101691.91;;;21.34;60.16
9110;BME280;4590;51.462;6.692;2023-09-07T02:45:32;101689.00;;;21.31;60.54
9110;BME280;4590;51.462;6.692;2023-09-07T02:47:57;101684.94;;;21.28;60.34
9110;BME280;4590;51.462;6.692;2023-09-07T02:50:22;101688.44;;;21.25;60.30
9110;BME280;4590;51.462;6.692;2023-09-07T02:52:47;101681.94;;;21.21;60.91
9110;BME280;4590;51.462;6.692;2023-09-07T02:55:13;101683.78;;;21.17;61.03
9110;BME280;4590;51.462;6.692;2023-09-07T02:57:38;101686.47;;;21.14;60.64
9110;BME280;4590;51.462;6.692;2023-09-07T03:00:03;101686.75;;;21.09;61.07
9110;BME280;4590;51.462;6.692;2023-09-07T03:02:34;101691.41;;;21.05;60.61
9110;BME280;4590;51.462;6.692;2023-09-07T03:04:59;101685.72;;;21.01;61.07
9110;BME280;4590;51.462;6.692;2023-09-07T03:07:24;101691.66;;;20.99;61.09
9110;BME280;4590;51.462;6.692;2023-09-07T03:09:51;101685.59;;;20.97;61.05
9110;BME280;4590;51.462;6.692;2023-09-07T03:12:16;101688.28;;;20.94;61.30
9110;BME280;4590;51.462;6.692;2023-09-07T03:14:42;101694.25;;;20.92;60.74
9110;BME280;4590;51.462;6.692;2023-09-07T03:17:08;101684.13;;;20.88;61.08
9110;BME280;4590;51.462;6.692;2023-09-07T03:19:33;101687.63;;;20.85;61.32
9110;BME280;4590;51.462;6.692;2023-09-07T03:21:58;101683.88;;;20.81;60.60
9110;BME280;4590;51.462;6.692;2023-09-07T03:24:23;101681.44;;;20.79;61.14
9110;BME280;4590;51.462;6.692;2023-09-07T03:26:48;101688.13;;;20.75;61.26
9110;BME280;4590;51.462;6.692;2023-09-07T03:29:14;101689.63;;;20.72;61.17
9110;BME280;4590;51.462;6.692;2023-09-07T03:31:39;101689.16;;;20.70;61.03
9110;BME280;4590;51.462;6.692;2023-09-07T03:34:04;101696.28;;;20.67;61.10
9110;BME280;4590;51.462;6.692;2023-09-07T03:36:30;101697.31;;;20.63;61.45
9110;BME280;4590;51.462;6.692;2023-09-07T03:38:56;101696.88;;;20.61;61.44
9110;BME280;4590;51.462;6.692;2023-09-07T03:41:21;101695.59;;;20.58;61.69
9110;BME280;4590;51.462;6.692;2023-09-07T03:43:46;101699.91;;;20.56;61.47
9110;BME280;4590;51.462;6.692;2023-09-07T03:46:11;101698.63;;;20.53;61.48
9110;BME280;4590;51.462;6.692;2023-09-07T03:48:37;101701.75;;;20.52;61.61
9110;BME280;4590;51.462;6.692;2023-09-07T03:51:05;101705.25;;;20.49;61.54
9110;BME280;4590;51.462;6.692;2023-09-07T03:53:30;101701.19;;;20.46;61.68
9110;BME280;4590;51.462;6.692;2023-09-07T03:55:55;101709.13;;;20.44;61.63
9110;BME280;4590;51.462;6.692;2023-09-07T03:58:20;101708.19;;;20.40;61.71
9110;BME280;4590;51.462;6.692;2023-09-07T04:00:46;101698.16;;;20.39;62.14
9110;BME280;4590;51.462;6.692;2023-09-07T04:03:11;101701.31;;;20.38;61.57
9110;BME280;4590;51.462;6.692;2023-09-07T04:05:36;101714.78;;;20.36;61.34
9110;BME280;4590;51.462;6.692;2023-09-07T04:08:02;101703.47;;;20.32;61.44
9110;BME280;4590;51.462;6.692;2023-09-07T04:10:28;101707.00;;;20.29;61.63
9110;BME280;4590;51.462;6.692;2023-09-07T04:12:53;101706.88;;;20.25;61.62
9110;BME280;4590;51.462;6.692;2023-09-07T04:15:18;101700.00;;;20.23;61.75
9110;BME280;4590;51.462;6.692;2023-09-07T04:17:43;101700.69;;;20.20;61.66
9110;BME280;4590;51.462;6.692;2023-09-07T04:20:09;101698.22;;;20.18;62.11
9110;BME280;4590;51.462;6.692;2023-09-07T04:22:36;101708.13;;;20.16;62.26
9110;BME280;4590;51.462;6.692;2023-09-07T04:25:01;101698.09;;;20.15;62.04
9110;BME280;4590;51.462;6.692;2023-09-07T04:27:27;101692.91;;;20.13;61.79
9110;BME280;4590;51.462;6.692;2023-09-07T04:29:52;101687.66;;;20.12;62.30
9110;BME280;4590;51.462;6.692;2023-09-07T04:32:18;101697.19;;;20.11;62.20
9110;BME280;4590;51.462;6.692;2023-09-07T04:34:43;101696.38;;;20.10;62.18
9110;BME280;4590;51.462;6.692;2023-09-07T04:37:09;101692.78;;;20.10;61.92
9110;BME280;4590;51.462;6.692;2023-09-07T04:39:34;101690.31;;;20.08;63.47
9110;BME280;4590;51.462;6.692;2023-09-07T04:41:59;101687.53;;;20.08;62.87
9110;BME280;4590;51.462;6.692;2023-09-07T04:44:25;101693.47;;;20.07;63.79
9110;BME280;4590;51.462;6.692;2023-09-07T04:46:51;101699.06;;;20.07;63.83
9110;BME280;4590;51.462;6.692;2023-09-07T04:49:17;101703.81;;;20.06;62.96
9110;BME280;4590;51.462;6.692;2023-09-07T04:51:42;101701.38;;;20.05;63.24
9110;BME280;4590;51.462;6.692;2023-09-07T04:54:08;101701.38;;;20.05;61.33
9110;BME280;4590;51.462;6.692;2023-09-07T04:56:33;101709.28;;;20.03;60.00
9110;BME280;4590;51.462;6.692;2023-09-07T04:58:58;101709.63;;;20.01;61.85
9110;BME280;4590;51.462;6.692;2023-09-07T05:01:23;101700.44;;;20.01;61.46
9110;BME280;4590;51.462;6.692;2023-09-07T05:03:49;101701.59;;;20.00;62.86
9110;BME280;4590;51.462;6.692;2023-09-07T05:06:16;101703.56;;;19.99;62.82
9110;BME280;4590;51.462;6.692;2023-09-07T05:08:41;101708.81;;;20.01;61.94
9110;BME280;4590;51.462;6.692;2023-09-07T05:11:06;101703.56;;;19.99;61.88
9110;BME280;4590;51.462;6.692;2023-09-07T05:13:32;101707.16;;;20.00;61.91
9110;BME280;4590;51.462;6.692;2023-09-07T05:15:58;101707.31;;;20.03;60.41
9110;BME280;4590;51.462;6.692;2023-09-07T05:18:23;101707.66;;;20.02;61.27
9110;BME280;4590;51.462;6.692;2023-09-07T05:20:48;101712.06;;;20.03;60.59
9110;BME280;4590;51.462;6.692;2023-09-07T05:23:16;101713.38;;;20.05;60.98
9110;BME280;4590;51.462;6.692;2023-09-07T05:25:46;101716.97;;;20.06;60.79
9110;BME280;4590;51.462;6.692;2023-09-07T05:28:15;101721.41;;;20.07;62.08
9110;BME280;4590;51.462;6.692;2023-09-07T05:30:41;101722.22;;;20.07;61.09
9110;BME280;4590;51.462;6.692;2023-09-07T05:33:06;101719.44;;;20.07;61.83
9110;BME280;4590;51.462;6.692;2023-09-07T05:35:32;101726.28;;;20.10;61.77
9110;BME280;4590;51.462;6.692;2023-09-07T05:37:57;101724.88;;;20.16;61.03
9110;BME280;4590;51.462;6.692;2023-09-07T05:40:23;101725.38;;;20.18;60.55
9110;BME280;4590;51.462;6.692;2023-09-07T05:42:48;101725.72;;;20.16;61.55
9110;BME280;4590;51.462;6.692;2023-09-07T05:45:13;101729.44;;;20.20;60.88
9110;BME280;4590;51.462;6.692;2023-09-07T05:47:38;101727.13;;;20.22;60.55
9110;BME280;4590;51.462;6.692;2023-09-07T05:50:04;101731.69;;;20.27;60.55
9110;BME280;4590;51.462;6.692;2023-09-07T05:52:29;101728.53;;;20.28;61.09
9110;BME280;4590;51.462;6.692;2023-09-07T05:54:54;101725.84;;;20.32;60.60
9110;BME280;4590;51.462;6.692;2023-09-07T05:57:19;101723.31;;;20.39;59.90
9110;BME280;4590;51.462;6.692;2023-09-07T05:59:45;101729.03;;;20.43;60.42
9110;BME280;4590;51.462;6.692;2023-09-07T06:02:10;101730.06;;;20.50;59.64
9110;BME280;4590;51.462;6.692;2023-09-07T06:04:35;101732.63;;;20.55;59.78
9110;BME280;4590;51.462;6.692;2023-09-07T06:07:01;101745.22;;;20.61;59.49
9110;BME280;4590;51.462;6.692;2023-09-07T06:09:26;101741.03;;;20.67;58.73
9110;BME280;4590;51.462;6.692;2023-09-07T06:11:51;101744.06;;;20.75;59.08
9110;BME280;4590;51.462;6.692;2023-09-07T06:14:16;101746.59;;;20.80;59.12
9110;BME280;4590;51.462;6.692;2023-09-07T06:16:42;101739.47;;;20.82;59.75
9110;BME280;4590;51.462;6.692;2023-09-07T06:19:07;101747.28;;;20.89;59.30
9110;BME280;4590;51.462;6.692;2023-09-07T06:21:32;101751.13;;;20.96;59.57
9110;BME280;4590;51.462;6.692;2023-09-07T06:23:57;101745.41;;;21.05;59.11
9110;BME280;4590;51.462;6.692;2023-09-07T06:26:22;101742.81;;;21.12;58.61
9110;BME280;4590;51.462;6.692;2023-09-07T06:28:48;101757.06;;;21.19;58.28
9110;BME280;4590;51.462;6.692;2023-09-07T06:31:13;101761.69;;;21.27;58.30
9110;BME280;4590;51.462;6.692;2023-09-07T06:33:38;101749.91;;;21.34;58.18
9110;BME280;4590;51.462;6.692;2023-09-07T06:36:03;101756.16;;;21.43;57.38
9110;BME280;4590;51.462;6.692;2023-09-07T06:38:29;101751.59;;;21.51;57.18
9110;BME280;4590;51.462;6.692;2023-09-07T06:40:54;101753.41;;;21.59;58.28
9110;BME280;4590;51.462;6.692;2023-09-07T06:43:19;101756.06;;;21.67;58.29
9110;BME280;4590;51.462;6.692;2023-09-07T06:45:44;101751.09;;;21.77;58.25
9110;BME280;4590;51.462;6.692;2023-09-07T06:48:09;101758.25;;;21.90;57.67
9110;BME280;4590;51.462;6.692;2023-09-07T06:50:35;101755.88;;;22.04;57.43
9110;BME280;4590;51.462;6.692;2023-09-07T06:53:00;101751.56;;;22.22;57.21
9110;BME280;4590;51.462;6.692;2023-09-07T06:55:25;101754.72;;;22.36;55.83
9110;BME280;4590;51.462;6.692;2023-09-07T06:57:50;101754.09;;;22.59;56.58
9110;BME280;4590;51.462;6.692;2023-09-07T07:00:16;101759.44;;;22.80;55.25
9110;BME280;4590;51.462;6.692;2023-09-07T07:02:41;101758.28;;;23.00;54.01
9110;BME280;4590;51.462;6.692;2023-09-07T07:05:06;101760.03;;;23.24;53.44
9110;BME280;4590;51.462;6.692;2023-09-07T07:07:31;101763.34;;;23.49;53.36
9110;BME280;4590;51.462;6.692;2023-09-07T07:09:57;101759.69;;;23.64;50.87
9110;BME280;4590;51.462;6.692;2023-09-07T07:12:22;101766.28;;;23.94;51.74
9110;BME280;4590;51.462;6.692;2023-09-07T07:14:47;101770.75;;;24.18;51.42
9110;BME280;4590;51.462;6.692;2023-09-07T07:17:12;101769.16;;;24.40;51.27
9110;BME280;4590;51.462;6.692;2023-09-07T07:19:38;101766.38;;;24.66;51.87
9110;BME280;4590;51.462;6.692;2023-09-07T07:22:03;101765.88;;;24.87;51.75
9110;BME280;4590;51.462;6.692;2023-09-07T07:24:28;101771.06;;;25.08;51.26
9110;BME280;4590;51.462;6.692;2023-09-07T07:26:53;101760.00;;;25.22;49.32
9110;BME280;4590;51.462;6.692;2023-09-07T07:29:19;101768.25;;;25.38;48.83
9110;BME280;4590;51.462;6.692;2023-09-07T07:31:44;101759.25;;;25.59;49.27
9110;BME280;4590;51.462;6.692;2023-09-07T07:34:09;101766.28;;;25.72;49.03
9110;BME280;4590;51.462;6.692;2023-09-07T07:36:34;101765.25;;;25.87;48.32
9110;BME280;4590;51.462;6.692;2023-09-07T07:39:00;101756.16;;;26.04;48.46
9110;BME280;4590;51.462;6.692;2023-09-07T07:41:26;101759.50;;;26.17;47.45
9110;BME280;4590;51.462;6.692;2023-09-07T07:43:51;101763.28;;;26.32;48.56
9110;BME280;4590;51.462;6.692;2023-09-07T07:46:16;101761.63;;;26.27;44.55
9110;BME280;4590;51.462;6.692;2023-09-07T07:48:41;101766.22;;;26.46;47.72
9110;BME280;4590;51.462;6.692;2023-09-07T07:51:07;101774.41;;;26.58;47.37
9110;BME280;4590;51.462;6.692;2023-09-07T07:53:32;101767.25;;;26.71;46.58
9110;BME280;4590;51.462;6.692;2023-09-07T07:55:57;101777.06;;;26.88;46.00
9110;BME280;4590;51.462;6.692;2023-09-07T07:58:22;101767.50;;;27.03;44.92
9110;BME280;4590;51.462;6.692;2023-09-07T08:00:48;101771.66;;;27.27;44.29
9110;BME280;4590;51.462;6.692;2023-09-07T08:03:13;101765.75;;;27.57;45.20
9110;BME280;4590;51.462;6.692;2023-09-07T08:05:39;101763.03;;;27.85;45.36
9110;BME280;4590;51.462;6.692;2023-09-07T08:08:04;101761.84;;;28.04;41.95
9110;BME280;4590;51.462;6.692;2023-09-07T08:10:33;101759.47;;;28.35;42.71
9110;BME280;4590;51.462;6.692;2023-09-07T08:12:58;101769.16;;;28.66;42.26
9110;BME280;4590;51.462;6.692;2023-09-07T08:15:23;101761.09;;;28.85;39.85
9110;BME280;4590;51.462;6.692;2023-09-07T08:17:50;101770.00;;;28.94;38.08
9110;BME280;4590;51.462;6.692;2023-09-07T08:20:15;101760.19;;;29.20;39.80
9110;BME280;4590;51.462;6.692;2023-09-07T08:22:41;101750.94;;;29.02;37.11
9110;BME280;4590;51.462;6.692;2023-09-07T08:25:07;101754.06;;;29.36;39.44
9110;BME280;4590;51.462;6.692;2023-09-07T08:27:33;101752.88;;;29.41;37.47
9110;BME280;4590;51.462;6.692;2023-09-07T08:29:58;101753.53;;;29.70;39.35
9110;BME280;4590;51.462;6.692;2023-09-07T08:32:24;101741.81;;;29.64;37.89
9110;BME280;4590;51.462;6.692;2023-09-07T08:34:49;101751.53;;;29.66;38.51
9110;BME280;4590;51.462;6.692;2023-09-07T08:37:15;101741.47;;;29.58;38.20
9110;BME280;4590;51.462;6.692;2023-09-07T08:39:41;101741.00;;;29.63;38.84
9110;BME280;4590;51.462;6.692;2023-09-07T08:42:06;101741.00;;;29.63;37.98
9110;BME280;4590;51.462;6.692;2023-09-07T08:44:32;101746.63;;;29.74;37.41
9110;BME280;4590;51.462;6.692;2023-09-07T08:46:58;101738.94;;;29.75;36.25
9110;BME280;4590;51.462;6.692;2023-09-07T08:49:24;101734.34;;;29.91;35.59
9110;BME280;4590;51.462;6.692;2023-09-07T08:51:50;101737.75;;;30.27;36.01
9110;BME280;4590;51.462;6.692;2023-09-07T08:54:16;101732.66;;;30.56;36.09
9110;BME280;4590;51.462;6.692;2023-09-07T08:56:42;101729.00;;;30.56;34.29
9110;BME280;4590;51.462;6.692;2023-09-07T08:59:08;101732.22;;;30.61;34.03
9110;BME280;4590;51.462;6.692;2023-09-07T09:01:33;101731.25;;;30.79;34.84
9110;BME280;4590;51.462;6.692;2023-09-07T09:03:58;101723.53;;;30.79;33.46
9110;BME280;4590;51.462;6.692;2023-09-07T09:06:24;101730.31;;;30.89;33.18
9110;BME280;4590;51.462;6.692;2023-09-07T09:08:55;101729.69;;;31.12;33.89
9110;BME280;4590;51.462;6.692;2023-09-07T09:11:21;101730.78;;;31.21;32.60
9110;BME280;4590;51.462;6.692;2023-09-07T09:13:47;101728.28;;;31.27;32.20
9110;BME280;4590;51.462;6.692;2023-09-07T09:16:13;101716.56;;;31.52;33.37
9110;BME280;4590;51.462;6.692;2023-09-07T09:18:38;101726.19;;;31.61;32.76
9110;BME280;4590;51.462;6.692;2023-09-07T09:21:04;101731.16;;;31.84;32.94
9110;BME280;4590;51.462;6.692;2023-09-07T09:23:33;101730.91;;;31.75;31.26
9110;BME280;4590;51.462;6.692;2023-09-07T09:25:59;101734.19;;;31.73;32.41
9110;BME280;4590;51.462;6.692;2023-09-07T09:28:25;101733.75;;;31.75;30.75
9110;BME280;4590;51.462;6.692;2023-09-07T09:30:51;101733.38;;;31.73;31.68
9110;BME280;4590;51.462;6.692;2023-09-07T09:33:18;101736.44;;;31.86;31.71
9110;BME280;4590;51.462;6.692;2023-09-07T09:35:44;101732.59;;;31.96;31.79
9110;BME280;4590;51.462;6.692;2023-09-07T09:38:09;101729.06;;;32.15;32.19
9110;BME280;4590;51.462;6.692;2023-09-07T09:40:35;101722.66;;;32.34;32.26
9110;BME280;4590;51.462;6.692;2023-09-07T09:43:01;101722.78;;;32.51;32.54
9110;BME280;4590;51.462;6.692;2023-09-07T09:45:26;101719.06;;;32.54;30.74
9110;BME280;4590;51.462;6.692;2023-09-07T09:47:51;101721.53;;;32.75;30.79
9110;BME280;4590;51.462;6.692;2023-09-07T09:50:19;101723.13;;;32.99;31.78
9110;BME280;4590;51.462;6.692;2023-09-07T09:52:44;101717.94;;;33.14;30.94
9110;BME280;4590;51.462;6.692;2023-09-07T09:55:10;101718.53;;;33.05;30.28
9110;BME280;4590;51.462;6.692;2023-09-07T09:57:38;101716.59;;;33.38;30.23
9110;BME280;4590;51.462;6.692;2023-09-07T10:00:04;101715.28;;;33.43;30.16
9110;BME280;4590;51.462;6.692;2023-09-07T10:02:52;101714.63;;;33.55;30.52
9110;BME280;4590;51.462;6.692;2023-09-07T10:05:19;101701.91;;;33.40;28.49
9110;BME280;4590;51.462;6.692;2023-09-07T10:07:45;101705.31;;;33.35;29.01
9110;BME280;4590;51.462;6.692;2023-09-07T10:10:12;101700.97;;;33.47;29.34
9110;BME280;4590;51.462;6.692;2023-09-07T10:12:42;101702.84;;;33.53;30.12
9110;BME280;4590;51.462;6.692;2023-09-07T10:15:19;101698.09;;;33.47;29.57
9110;BME280;4590;51.462;6.692;2023-09-07T10:17:44;101690.03;;;33.61;29.62
9110;BME280;4590;51.462;6.692;2023-09-07T10:20:11;101683.63;;;33.73;29.86
9110;BME280;4590;51.462;6.692;2023-09-07T10:22:37;101698.56;;;33.81;30.20
9110;BME280;4590;51.462;6.692;2023-09-07T10:25:02;101684.72;;;33.79;28.65
9110;BME280;4590;51.462;6.692;2023-09-07T10:27:35;101682.59;;;33.84;29.17
9110;BME280;4590;51.462;6.692;2023-09-07T10:30:01;101687.22;;;33.77;28.16
9110;BME280;4590;51.462;6.692;2023-09-07T10:32:37;101680.66;;;33.61;28.34
9110;BME280;4590;51.462;6.692;2023-09-07T10:35:11;101674.59;;;33.59;28.64
9110;BME280;4590;51.462;6.692;2023-09-07T10:37:36;101672.47;;;33.63;29.76
9110;BME280;4590;51.462;6.692;2023-09-07T10:40:02;101673.22;;;33.47;28.96
9110;BME280;4590;51.462;6.692;2023-09-07T10:42:29;101667.44;;;33.51;29.12
9110;BME280;4590;51.462;6.692;2023-09-07T10:44:54;101673.81;;;33.38;29.09
9110;BME280;4590;51.462;6.692;2023-09-07T10:47:19;101661.41;;;33.29;29.55
9110;BME280;4590;51.462;6.692;2023-09-07T10:49:45;101656.91;;;33.48;28.96
9110;BME280;4590;51.462;6.692;2023-09-07T10:52:10;101662.63;;;33.48;29.09
9110;BME280;4590;51.462;6.692;2023-09-07T10:54:35;101663.31;;;33.35;28.79
9110;BME280;4590;51.462;6.692;2023-09-07T10:57:08;101660.13;;;33.50;29.33
9110;BME280;4590;51.462;6.692;2023-09-07T10:59:33;101661.34;;;33.32;28.35
9110;BME280;4590;51.462;6.692;2023-09-07T11:02:05;101663.00;;;33.50;29.60
9110;BME280;4590;51.462;6.692;2023-09-07T11:04:30;101663.06;;;33.46;28.90
9110;BME280;4590;51.462;6.692;2023-09-07T11:06:56;101661.97;;;33.40;29.08
9110;BME280;4590;51.462;6.692;2023-09-07T11:09:21;101659.47;;;33.42;28.71
9110;BME280;4590;51.462;6.692;2023-09-07T11:11:46;101653.44;;;33.56;28.81
9110;BME280;4590;51.462;6.692;2023-09-07T11:14:12;101652.41;;;33.66;29.13
9110;BME280;4590;51.462;6.692;2023-09-07T11:16:37;101652.97;;;33.77;29.33
9110;BME280;4590;51.462;6.692;2023-09-07T11:19:06;101648.19;;;33.71;29.11
9110;BME280;4590;51.462;6.692;2023-09-07T11:21:31;101646.38;;;33.81;28.94
9110;BME280;4590;51.462;6.692;2023-09-07T11:24:01;101648.13;;;33.74;29.30
9110;BME280;4590;51.462;6.692;2023-09-07T11:26:26;101639.00;;;33.63;29.21
9110;BME280;4590;51.462;6.692;2023-09-07T11:28:51;101641.66;;;33.54;29.65
9110;BME280;4590;51.462;6.692;2023-09-07T11:31:19;101637.63;;;33.35;29.34
9110;BME280;4590;51.462;6.692;2023-09-07T11:33:46;101634.13;;;33.28;29.22
9110;BME280;4590;51.462;6.692;2023-09-07T11:36:11;101638.22;;;33.07;29.27
9110;BME280;4590;51.462;6.692;2023-09-07T11:38:37;101629.16;;;32.92;30.18
9110;BME280;4590;51.462;6.692;2023-09-07T11:41:02;101635.22;;;32.74;30.27
9110;BME280;4590;51.462;6.692;2023-09-07T11:43:28;101632.31;;;32.78;30.54
9110;BME280;4590;51.462;6.692;2023-09-07T11:45:53;101633.38;;;32.64;30.88
9110;BME280;4590;51.462;6.692;2023-09-07T11:48:19;101630.47;;;32.68;30.32
9110;BME280;4590;51.462;6.692;2023-09-07T11:50:44;101628.38;;;32.72;30.61
9110;BME280;4590;51.462;6.692;2023-09-07T11:53:09;101629.00;;;32.60;29.93
9110;BME280;4590;51.462;6.692;2023-09-07T11:55:34;101621.75;;;32.35;30.66
9110;BME280;4590;51.462;6.692;2023-09-07T11:58:00;101609.41;;;32.42;30.58
9110;BME280;4590;51.462;6.692;2023-09-07T12:00:26;101611.16;;;32.36;30.44
9110;BME280;4590;51.462;6.692;2023-09-07T12:02:52;101615.16;;;32.15;30.92
9110;BME280;4590;51.462;6.692;2023-09-07T12:05:17;101610.09;;;32.03;31.06
9110;BME280;4590;51.462;6.692;2023-09-07T12:07:44;101608.63;;;31.95;31.31
9110;BME280;4590;51.462;6.692;2023-09-07T12:10:09;101608.31;;;31.89;30.95
9110;BME280;4590;51.462;6.692;2023-09-07T12:12:41;101607.50;;;31.89;31.39
9110;BME280;4590;51.462;6.692;2023-09-07T12:15:06;101602.28;;;31.84;30.52
9110;BME280;4590;51.462;6.692;2023-09-07T12:17:32;101609.97;;;31.87;30.99
9110;BME280;4590;51.462;6.692;2023-09-07T12:19:57;101592.72;;;31.74;30.91
9110;BME280;4590;51.462;6.692;2023-09-07T12:22:23;101594.00;;;31.69;30.22
9110;BME280;4590;51.462;6.692;2023-09-07T12:24:48;101584.50;;;31.80;30.23
9110;BME280;4590;51.462;6.692;2023-09-07T12:27:14;101590.06;;;31.87;31.30
9110;BME280;4590;51.462;6.692;2023-09-07T12:29:39;101588.44;;;31.86;30.34
9110;BME280;4590;51.462;6.692;2023-09-07T12:32:04;101585.53;;;31.89;30.43
9110;BME280;4590;51.462;6.692;2023-09-07T12:34:30;101581.28;;;31.78;30.90
9110;BME280;4590;51.462;6.692;2023-09-07T12:36:55;101575.44;;;31.85;30.80
9110;BME280;4590;51.462;6.692;2023-09-07T12:39:20;101582.81;;;31.82;30.98
9110;BME280;4590;51.462;6.692;2023-09-07T12:41:45;101582.38;;;31.84;31.09
9110;BME280;4590;51.462;6.692;2023-09-07T12:44:10;101577.25;;;31.75;31.04
9110;BME280;4590;51.462;6.692;2023-09-07T12:46:36;101571.13;;;31.77;31.16
9110;BME280;4590;51.462;6.692;2023-09-07T12:49:02;101582.94;;;31.75;31.55
9110;BME280;4590;51.462;6.692;2023-09-07T12:51:27;101585.34;;;31.77;31.29
9110;BME280;4590;51.462;6.692;2023-09-07T12:53:52;101570.00;;;31.70;31.00
9110;BME280;4590;51.462;6.692;2023-09-07T12:56:17;101571.75;;;31.61;32.39
9110;BME280;4590;51.462;6.692;2023-09-07T12:58:43;101565.16;;;31.67;31.97
9110;BME280;4590;51.462;6.692;2023-09-07T13:01:08;101556.63;;;31.67;32.23